Saloa, Brazil
Current Conditions -  °F | °C
As of 10:00 AM on Monday 20 Oct 2014 (Local Time) from SBMO Reporting Station
Scattered Clouds Scattered Clouds  
Wind Chill: 81°   Ceiling: Unl
Heat Index: 83°   Visibility: 6mi
Dew Point: 66°   Wind: 13mph
Humidity: 61%   Direction: 70°ENE
Pressure: 29.97"   Gusts: NA
Location:  8.97°S, 36.69°W
Report Text: SBMO 201300Z 07011KT 9999 SCT020 27/19 Q1015
Loading
Personal Weather Stations






























Interactive Weather Map
Tropical Storm Tracking
New forecast layout! Learn more

10-Day Weather Forecast

Advertisements
Track Severe Weather on mobile